EZY24HL EGGW-LDSP
Flight info
| Callsign | EZY24HL |
|---|---|
| Flight time | 2h 3m |
| Altitude | 37000 |
| Route | MATCH Q295 BRAIN P44 DAGGA M85 ITVIP L10 DVR UL9 KONAN UL607 KOK DCT LIRSU DCT KRH DCT UTABA DCT BEMKI DCT ELMEM DCT DIRAB DCT VESAL DCT PEVAL DCT NAKIT DCT PUL DCT LOS DCT MINTU DCT SAL |
| Aircraft | A319/M-SDE3FGHIRWY/LB1 |
Departure
| Time | 2026-04-27 10:44 |
|---|---|
| Airport | London Luton Airport (EGGW) |
Arrival
| Time | 2026-04-27 12:47 |
|---|---|
| Airport | Split Saint Jerome Airport (LDSP) |
| Time | Latitude | Longitude | Altitude | Speed | Heading |
|---|---|---|---|---|---|
| 2026-04-27 10:08 | 51.87706 | -0.37059 | 534 ft | 0 kts | 344° |
| 2026-04-27 10:35 | 51.87706 | -0.37058 | 534 ft | 1 kts | 344° |
| 2026-04-27 10:35 | 51.87684 | -0.37048 | 534 ft | 4 kts | 344° |
| 2026-04-27 10:35 | 51.87662 | -0.37038 | 534 ft | 2 kts | 344° |
| 2026-04-27 10:36 | 51.87638 | -0.37031 | 534 ft | 4 kts | 1° |
| 2026-04-27 10:36 | 51.87615 | -0.37030 | 534 ft | 4 kts | 313° |
| 2026-04-27 10:36 | 51.87616 | -0.37046 | 534 ft | 4 kts | 279° |
| 2026-04-27 10:36 | 51.87611 | -0.37087 | 534 ft | 4 kts | 253° |
| 2026-04-27 10:37 | 51.87604 | -0.37122 | 534 ft | 4 kts | 254° |
| 2026-04-27 10:37 | 51.87597 | -0.37164 | 534 ft | 4 kts | 254° |
| 2026-04-27 10:37 | 51.87589 | -0.37206 | 534 ft | 4 kts | 254° |
| 2026-04-27 10:37 | 51.87586 | -0.37225 | 534 ft | 0 kts | 254° |
| 2026-04-27 10:40 | 51.87585 | -0.37227 | 534 ft | 1 kts | 254° |
| 2026-04-27 10:40 | 51.87582 | -0.37251 | 534 ft | 4 kts | 258° |
| 2026-04-27 10:41 | 51.87578 | -0.37318 | 534 ft | 8 kts | 271° |
| 2026-04-27 10:41 | 51.87587 | -0.37414 | 536 ft | 8 kts | 266° |
| 2026-04-27 10:41 | 51.87542 | -0.37468 | 536 ft | 10 kts | 202° |
| 2026-04-27 10:41 | 51.87502 | -0.37563 | 536 ft | 12 kts | 253° |
| 2026-04-27 10:42 | 51.87479 | -0.37700 | 536 ft | 14 kts | 254° |
| 2026-04-27 10:42 | 51.87451 | -0.37856 | 536 ft | 15 kts | 254° |
| 2026-04-27 10:42 | 51.87421 | -0.38003 | 536 ft | 12 kts | 240° |
| 2026-04-27 10:42 | 51.87346 | -0.38087 | 534 ft | 15 kts | 204° |
| 2026-04-27 10:43 | 51.87264 | -0.38126 | 532 ft | 7 kts | 186° |
| 2026-04-27 10:43 | 51.87245 | -0.38101 | 532 ft | 2 kts | 85° |
| 2026-04-27 10:43 | 51.87257 | -0.38035 | 533 ft | 24 kts | 73° |
| 2026-04-27 10:43 | 51.87383 | -0.37306 | 538 ft | 107 kts | 74° |
| 2026-04-27 10:44 | 51.87640 | -0.35816 | 686 ft | 153 kts | 75° |
| 2026-04-27 10:44 | 51.87924 | -0.34166 | 1430 ft | 151 kts | 74° |
| 2026-04-27 10:44 | 51.88221 | -0.32434 | 1893 ft | 171 kts | 73° |
| 2026-04-27 10:44 | 51.88561 | -0.30474 | 2285 ft | 191 kts | 73° |
| 2026-04-27 10:45 | 51.88941 | -0.28289 | 2653 ft | 213 kts | 73° |
| 2026-04-27 10:45 | 51.89342 | -0.25968 | 3388 ft | 221 kts | 73° |
| 2026-04-27 10:45 | 51.89556 | -0.23377 | 3809 ft | 248 kts | 98° |
| 2026-04-27 10:45 | 51.88756 | -0.20837 | 4415 ft | 265 kts | 136° |
| 2026-04-27 10:46 | 51.87174 | -0.19259 | 5325 ft | 270 kts | 154° |
| 2026-04-27 10:46 | 51.85453 | -0.17990 | 6265 ft | 274 kts | 156° |
| 2026-04-27 10:46 | 51.83675 | -0.16767 | 7119 ft | 281 kts | 157° |
| 2026-04-27 10:46 | 51.81864 | -0.15529 | 7964 ft | 285 kts | 158° |
| 2026-04-27 10:47 | 51.80046 | -0.14186 | 8820 ft | 291 kts | 150° |
| 2026-04-27 10:47 | 51.78570 | -0.11931 | 9638 ft | 298 kts | 123° |
| 2026-04-27 10:47 | 51.77821 | -0.08814 | 10442 ft | 303 kts | 97° |
| 2026-04-27 10:47 | 51.77857 | -0.05407 | 11202 ft | 307 kts | 83° |
| 2026-04-27 10:48 | 51.78126 | -0.01857 | 11504 ft | 330 kts | 81° |
| 2026-04-27 10:48 | 51.78436 | 0.01893 | 12082 ft | 342 kts | 81° |
| 2026-04-27 10:48 | 51.78757 | 0.05730 | 12805 ft | 347 kts | 81° |
| 2026-04-27 10:48 | 51.79085 | 0.09618 | 13563 ft | 352 kts | 81° |
| 2026-04-27 10:49 | 51.79421 | 0.13557 | 14297 ft | 356 kts | 81° |
| 2026-04-27 10:49 | 51.79763 | 0.17540 | 14968 ft | 360 kts | 81° |
| 2026-04-27 10:49 | 51.80106 | 0.21561 | 15643 ft | 363 kts | 81° |
| 2026-04-27 10:49 | 51.80448 | 0.25624 | 16313 ft | 367 kts | 82° |
| 2026-04-27 10:50 | 51.80412 | 0.29751 | 16957 ft | 372 kts | 100° |
| 2026-04-27 10:50 | 51.79550 | 0.33686 | 17602 ft | 375 kts | 120° |
| 2026-04-27 10:50 | 51.77929 | 0.36975 | 18255 ft | 376 kts | 139° |
| 2026-04-27 10:50 | 51.75958 | 0.39780 | 18873 ft | 379 kts | 140° |
| 2026-04-27 10:51 | 51.73960 | 0.42577 | 19447 ft | 382 kts | 140° |
| 2026-04-27 10:51 | 51.71939 | 0.45394 | 20030 ft | 385 kts | 140° |
| 2026-04-27 10:51 | 51.69906 | 0.48232 | 20607 ft | 388 kts | 140° |
| 2026-04-27 10:51 | 51.67858 | 0.51092 | 21185 ft | 391 kts | 141° |
| 2026-04-27 10:52 | 51.65790 | 0.53977 | 21758 ft | 395 kts | 141° |
| 2026-04-27 10:52 | 51.63707 | 0.56886 | 22331 ft | 398 kts | 141° |
| 2026-04-27 10:52 | 51.61613 | 0.59815 | 22897 ft | 401 kts | 141° |
| 2026-04-27 10:52 | 51.59501 | 0.62774 | 23461 ft | 404 kts | 141° |
| 2026-04-27 10:53 | 51.58093 | 0.64745 | 23836 ft | 406 kts | 141° |
| 2026-04-27 10:53 | 51.53800 | 0.70734 | 24784 ft | 411 kts | 142° |
| 2026-04-27 10:53 | 51.51632 | 0.73745 | 25234 ft | 413 kts | 142° |
| 2026-04-27 10:54 | 51.49452 | 0.76768 | 25662 ft | 416 kts | 142° |
| 2026-04-27 10:54 | 51.47253 | 0.79817 | 26108 ft | 419 kts | 142° |
| 2026-04-27 10:54 | 51.45044 | 0.82875 | 26530 ft | 421 kts | 142° |
| 2026-04-27 10:54 | 51.42815 | 0.85953 | 26952 ft | 424 kts | 143° |
| 2026-04-27 10:55 | 51.40577 | 0.89037 | 27363 ft | 427 kts | 143° |
| 2026-04-27 10:55 | 51.37584 | 0.93158 | 27903 ft | 430 kts | 143° |
| 2026-04-27 10:55 | 51.36044 | 0.95276 | 28176 ft | 432 kts | 143° |
| 2026-04-27 10:55 | 51.33756 | 0.98414 | 28562 ft | 435 kts | 143° |
| 2026-04-27 10:56 | 51.31449 | 1.01581 | 28935 ft | 438 kts | 143° |
| 2026-04-27 10:56 | 51.29343 | 1.05155 | 29359 ft | 448 kts | 129° |
| 2026-04-27 10:56 | 51.27892 | 1.09606 | 29736 ft | 459 kts | 111° |
| 2026-04-27 10:56 | 51.27185 | 1.14532 | 30104 ft | 465 kts | 102° |
| 2026-04-27 10:57 | 51.26615 | 1.19628 | 30451 ft | 468 kts | 102° |
| 2026-04-27 10:57 | 51.26054 | 1.24763 | 30765 ft | 470 kts | 102° |
| 2026-04-27 10:57 | 51.25492 | 1.29916 | 31082 ft | 472 kts | 102° |
| 2026-04-27 10:57 | 51.24922 | 1.35090 | 31391 ft | 475 kts | 102° |
| 2026-04-27 10:58 | 51.24341 | 1.40287 | 31693 ft | 477 kts | 102° |
| 2026-04-27 10:58 | 51.23752 | 1.45497 | 32074 ft | 477 kts | 102° |
| 2026-04-27 10:58 | 51.23158 | 1.50705 | 32465 ft | 477 kts | 103° |
| 2026-04-27 10:58 | 51.22560 | 1.55902 | 32866 ft | 476 kts | 103° |
| 2026-04-27 10:59 | 51.21959 | 1.61090 | 33293 ft | 475 kts | 103° |
| 2026-04-27 10:59 | 51.21355 | 1.66277 | 33712 ft | 475 kts | 103° |
| 2026-04-27 10:59 | 51.20751 | 1.71448 | 34132 ft | 474 kts | 103° |
| 2026-04-27 11:00 | 51.19550 | 1.81757 | 34874 ft | 472 kts | 102° |
| 2026-04-27 11:00 | 51.18950 | 1.86901 | 35224 ft | 471 kts | 102° |
| 2026-04-27 11:00 | 51.18349 | 1.92030 | 35557 ft | 470 kts | 102° |
| 2026-04-27 11:00 | 51.17745 | 1.97148 | 35861 ft | 470 kts | 102° |
| 2026-04-27 11:01 | 51.17141 | 2.02259 | 36166 ft | 469 kts | 102° |
| 2026-04-27 11:01 | 51.16535 | 2.07359 | 36477 ft | 468 kts | 102° |
| 2026-04-27 11:01 | 51.15924 | 2.12449 | 36777 ft | 467 kts | 102° |
| 2026-04-27 11:01 | 51.15310 | 2.17526 | 37067 ft | 466 kts | 102° |
| 2026-04-27 11:02 | 51.14694 | 2.22597 | 37255 ft | 466 kts | 102° |
| 2026-04-27 11:02 | 51.14081 | 2.27657 | 37295 ft | 466 kts | 102° |
| 2026-04-27 11:02 | 51.12845 | 2.37865 | 37285 ft | 472 kts | 102° |
| 2026-04-27 11:03 | 51.11587 | 2.48141 | 37282 ft | 473 kts | 102° |
| 2026-04-27 11:03 | 51.10313 | 2.58406 | 37277 ft | 473 kts | 102° |
| 2026-04-27 11:04 | 51.08720 | 2.68546 | 37268 ft | 471 kts | 115° |
| 2026-04-27 11:04 | 51.05837 | 2.77869 | 37272 ft | 470 kts | 118° |
| 2026-04-27 11:05 | 51.02920 | 2.87165 | 37289 ft | 470 kts | 118° |
| 2026-04-27 11:05 | 50.99979 | 2.96442 | 37281 ft | 470 kts | 118° |
| 2026-04-27 11:06 | 50.97027 | 3.05697 | 37274 ft | 470 kts | 118° |
| 2026-04-27 11:06 | 50.94068 | 3.14950 | 37279 ft | 470 kts | 118° |
| 2026-04-27 11:07 | 50.91108 | 3.24191 | 37256 ft | 470 kts | 118° |
| 2026-04-27 11:07 | 50.88133 | 3.33414 | 37257 ft | 470 kts | 119° |
| 2026-04-27 11:08 | 50.85153 | 3.42632 | 37255 ft | 470 kts | 119° |
| 2026-04-27 11:08 | 50.82188 | 3.51763 | 37245 ft | 470 kts | 119° |
| 2026-04-27 11:09 | 50.79194 | 3.60940 | 37253 ft | 470 kts | 119° |
| 2026-04-27 11:09 | 50.76192 | 3.70117 | 37255 ft | 470 kts | 119° |
| 2026-04-27 11:10 | 50.73178 | 3.79286 | 37268 ft | 470 kts | 119° |
| 2026-04-27 11:10 | 50.70154 | 3.88440 | 37264 ft | 470 kts | 119° |
| 2026-04-27 11:11 | 50.67133 | 3.97592 | 37264 ft | 470 kts | 119° |
| 2026-04-27 11:11 | 50.64102 | 4.06730 | 37264 ft | 470 kts | 120° |
| 2026-04-27 11:12 | 50.61064 | 4.15855 | 37267 ft | 470 kts | 120° |
| 2026-04-27 11:12 | 50.58020 | 4.24971 | 37271 ft | 470 kts | 120° |
| 2026-04-27 11:13 | 50.54966 | 4.34074 | 37261 ft | 470 kts | 120° |
| 2026-04-27 11:13 | 50.51902 | 4.43144 | 37266 ft | 470 kts | 120° |
| 2026-04-27 11:14 | 50.48825 | 4.52206 | 37268 ft | 470 kts | 120° |
| 2026-04-27 11:14 | 50.45761 | 4.61256 | 37268 ft | 470 kts | 120° |
| 2026-04-27 11:15 | 50.42693 | 4.70306 | 37254 ft | 470 kts | 120° |
| 2026-04-27 11:15 | 50.39611 | 4.79340 | 37247 ft | 470 kts | 120° |
| 2026-04-27 11:16 | 50.36511 | 4.88349 | 37243 ft | 470 kts | 120° |
| 2026-04-27 11:16 | 50.33405 | 4.97355 | 37243 ft | 470 kts | 120° |
| 2026-04-27 11:17 | 50.30302 | 5.06362 | 37216 ft | 470 kts | 121° |
| 2026-04-27 11:17 | 50.27210 | 5.15298 | 37223 ft | 471 kts | 121° |
| 2026-04-27 11:18 | 50.24082 | 5.24291 | 37223 ft | 471 kts | 121° |
| 2026-04-27 11:18 | 50.20946 | 5.33272 | 37230 ft | 471 kts | 121° |
| 2026-04-27 11:19 | 50.17796 | 5.42250 | 37226 ft | 471 kts | 121° |
| 2026-04-27 11:19 | 50.14644 | 5.51218 | 37231 ft | 471 kts | 121° |
| 2026-04-27 11:20 | 50.11493 | 5.60178 | 37230 ft | 472 kts | 121° |
| 2026-04-27 11:20 | 50.08321 | 5.69133 | 37226 ft | 472 kts | 121° |
| 2026-04-27 11:21 | 50.05135 | 5.78062 | 37226 ft | 472 kts | 121° |
| 2026-04-27 11:21 | 50.01952 | 5.86989 | 37216 ft | 472 kts | 121° |
| 2026-04-27 11:22 | 49.98763 | 5.95915 | 37221 ft | 472 kts | 121° |
| 2026-04-27 11:22 | 49.95568 | 6.04819 | 37223 ft | 472 kts | 121° |
| 2026-04-27 11:23 | 49.92366 | 6.13724 | 37226 ft | 472 kts | 122° |
| 2026-04-27 11:23 | 49.89156 | 6.22606 | 37217 ft | 472 kts | 122° |
| 2026-04-27 11:24 | 49.85926 | 6.31457 | 37217 ft | 472 kts | 122° |
| 2026-04-27 11:24 | 49.82690 | 6.40296 | 37211 ft | 472 kts | 122° |
| 2026-04-27 11:25 | 49.79447 | 6.49134 | 37210 ft | 472 kts | 122° |
| 2026-04-27 11:25 | 49.76192 | 6.57968 | 37198 ft | 473 kts | 122° |
| 2026-04-27 11:26 | 49.72932 | 6.66791 | 37204 ft | 473 kts | 122° |
| 2026-04-27 11:26 | 49.69652 | 6.75590 | 37204 ft | 472 kts | 122° |
| 2026-04-27 11:27 | 49.66371 | 6.84382 | 37204 ft | 473 kts | 122° |
| 2026-04-27 11:27 | 49.63114 | 6.93115 | 37201 ft | 473 kts | 122° |
| 2026-04-27 11:28 | 49.59831 | 7.01898 | 37217 ft | 473 kts | 122° |
| 2026-04-27 11:28 | 49.56539 | 7.10661 | 37212 ft | 473 kts | 122° |
| 2026-04-27 11:29 | 49.53237 | 7.19420 | 37216 ft | 473 kts | 122° |
| 2026-04-27 11:29 | 49.49923 | 7.28157 | 37201 ft | 473 kts | 122° |
| 2026-04-27 11:30 | 49.46608 | 7.36886 | 37209 ft | 473 kts | 122° |
| 2026-04-27 11:30 | 49.43295 | 7.45612 | 37214 ft | 473 kts | 122° |
| 2026-04-27 11:31 | 49.39966 | 7.54321 | 37208 ft | 473 kts | 123° |
| 2026-04-27 11:31 | 49.36624 | 7.63010 | 37213 ft | 473 kts | 122° |
| 2026-04-27 11:32 | 49.33274 | 7.71698 | 37214 ft | 473 kts | 122° |
| 2026-04-27 11:32 | 49.29920 | 7.80389 | 37217 ft | 474 kts | 122° |
| 2026-04-27 11:33 | 49.26566 | 7.89072 | 37221 ft | 474 kts | 122° |
| 2026-04-27 11:33 | 49.23199 | 7.97738 | 37201 ft | 473 kts | 123° |
| 2026-04-27 11:34 | 49.19820 | 8.06376 | 37216 ft | 473 kts | 122° |
| 2026-04-27 11:34 | 49.16439 | 8.15009 | 37218 ft | 473 kts | 122° |
| 2026-04-27 11:35 | 49.13055 | 8.23625 | 37211 ft | 473 kts | 122° |
| 2026-04-27 11:35 | 49.09674 | 8.32221 | 37209 ft | 473 kts | 124° |
| 2026-04-27 11:36 | 49.07637 | 8.36119 | 37197 ft | 467 kts | 140° |
| 2026-04-27 11:36 | 49.05165 | 8.39299 | 37201 ft | 464 kts | 144° |
| 2026-04-27 11:36 | 49.00139 | 8.45484 | 37196 ft | 464 kts | 144° |
| 2026-04-27 11:37 | 48.95097 | 8.51641 | 37186 ft | 465 kts | 144° |
| 2026-04-27 11:37 | 48.90124 | 8.57935 | 37187 ft | 466 kts | 142° |
| 2026-04-27 11:38 | 48.85216 | 8.64358 | 37189 ft | 466 kts | 142° |
| 2026-04-27 11:38 | 48.80299 | 8.70760 | 37191 ft | 466 kts | 142° |
| 2026-04-27 11:39 | 48.75355 | 8.77105 | 37200 ft | 466 kts | 142° |
| 2026-04-27 11:39 | 48.70394 | 8.83417 | 37176 ft | 466 kts | 142° |
| 2026-04-27 11:40 | 48.65434 | 8.89730 | 37188 ft | 466 kts | 142° |
| 2026-04-27 11:40 | 48.61303 | 8.94986 | 37188 ft | 467 kts | 142° |
| 2026-04-27 11:41 | 48.56337 | 9.01290 | 37190 ft | 467 kts | 142° |
| 2026-04-27 11:41 | 48.51361 | 9.07591 | 37191 ft | 467 kts | 142° |
| 2026-04-27 11:42 | 48.46382 | 9.13878 | 37198 ft | 467 kts | 142° |
| 2026-04-27 11:42 | 48.41397 | 9.20151 | 37187 ft | 467 kts | 142° |
| 2026-04-27 11:43 | 48.36402 | 9.26421 | 37188 ft | 468 kts | 142° |
| 2026-04-27 11:43 | 48.31403 | 9.32685 | 37190 ft | 468 kts | 142° |
| 2026-04-27 11:44 | 48.26401 | 9.38920 | 37173 ft | 468 kts | 142° |
| 2026-04-27 11:44 | 48.21394 | 9.45155 | 37197 ft | 468 kts | 142° |
| 2026-04-27 11:45 | 48.16385 | 9.51379 | 37193 ft | 468 kts | 142° |
| 2026-04-27 11:45 | 48.11367 | 9.57601 | 37200 ft | 468 kts | 142° |
| 2026-04-27 11:46 | 48.06346 | 9.63813 | 37191 ft | 468 kts | 142° |
| 2026-04-27 11:46 | 48.01325 | 9.69997 | 37184 ft | 468 kts | 142° |
| 2026-04-27 11:47 | 47.96303 | 9.76166 | 37188 ft | 467 kts | 142° |
| 2026-04-27 11:47 | 47.91284 | 9.82324 | 37189 ft | 467 kts | 142° |
| 2026-04-27 11:48 | 47.86260 | 9.88480 | 37187 ft | 468 kts | 142° |
| 2026-04-27 11:48 | 47.81217 | 9.94620 | 37188 ft | 468 kts | 142° |
| 2026-04-27 11:49 | 47.76177 | 10.00753 | 37179 ft | 468 kts | 142° |
| 2026-04-27 11:49 | 47.71172 | 10.06838 | 37186 ft | 468 kts | 142° |
| 2026-04-27 11:50 | 47.66097 | 10.12989 | 37201 ft | 468 kts | 142° |
| 2026-04-27 11:50 | 47.61079 | 10.19041 | 37196 ft | 468 kts | 142° |
| 2026-04-27 11:51 | 47.56019 | 10.25120 | 37191 ft | 469 kts | 142° |
| 2026-04-27 11:52 | 47.48378 | 10.34146 | 37188 ft | 468 kts | 142° |
| 2026-04-27 11:52 | 47.43246 | 10.40068 | 37189 ft | 468 kts | 143° |
| 2026-04-27 11:53 | 47.38122 | 10.45994 | 37201 ft | 468 kts | 142° |
| 2026-04-27 11:53 | 47.32999 | 10.51932 | 37187 ft | 468 kts | 142° |
| 2026-04-27 11:54 | 47.27876 | 10.57848 | 37182 ft | 468 kts | 143° |
| 2026-04-27 11:54 | 47.22761 | 10.63780 | 37175 ft | 468 kts | 136° |
| 2026-04-27 11:55 | 47.18095 | 10.70449 | 37178 ft | 468 kts | 135° |
| 2026-04-27 11:55 | 47.13439 | 10.77137 | 37184 ft | 468 kts | 135° |
| 2026-04-27 11:56 | 47.08777 | 10.83808 | 37182 ft | 468 kts | 135° |
| 2026-04-27 11:56 | 47.04109 | 10.90460 | 37178 ft | 468 kts | 135° |
| 2026-04-27 11:57 | 46.99442 | 10.97091 | 37188 ft | 467 kts | 135° |
| 2026-04-27 11:57 | 46.94774 | 11.03695 | 37190 ft | 467 kts | 135° |
| 2026-04-27 11:58 | 46.90104 | 11.10292 | 37203 ft | 467 kts | 136° |
| 2026-04-27 11:58 | 46.85433 | 11.16873 | 37184 ft | 467 kts | 136° |
| 2026-04-27 11:59 | 46.80739 | 11.23422 | 37178 ft | 466 kts | 136° |
| 2026-04-27 11:59 | 46.76040 | 11.29947 | 37139 ft | 466 kts | 136° |
| 2026-04-27 12:00 | 46.71349 | 11.36448 | 37132 ft | 465 kts | 136° |
| 2026-04-27 12:00 | 46.66669 | 11.42937 | 37122 ft | 465 kts | 136° |
| 2026-04-27 12:01 | 46.61983 | 11.49422 | 37119 ft | 464 kts | 136° |
| 2026-04-27 12:01 | 46.57302 | 11.55884 | 37103 ft | 464 kts | 136° |
| 2026-04-27 12:02 | 46.52612 | 11.62331 | 37095 ft | 464 kts | 136° |
| 2026-04-27 12:02 | 46.47927 | 11.68759 | 37097 ft | 463 kts | 136° |
| 2026-04-27 12:03 | 46.43238 | 11.75170 | 37109 ft | 463 kts | 136° |
| 2026-04-27 12:03 | 46.38549 | 11.81566 | 37113 ft | 463 kts | 136° |
| 2026-04-27 12:04 | 46.33866 | 11.87971 | 37110 ft | 463 kts | 136° |
| 2026-04-27 12:04 | 46.29197 | 11.94364 | 37124 ft | 462 kts | 136° |
| 2026-04-27 12:05 | 46.24560 | 12.00699 | 37122 ft | 461 kts | 136° |
| 2026-04-27 12:05 | 46.19881 | 12.07039 | 37121 ft | 461 kts | 136° |
| 2026-04-27 12:06 | 46.15210 | 12.13361 | 37125 ft | 460 kts | 136° |
| 2026-04-27 12:06 | 46.10541 | 12.19679 | 37136 ft | 460 kts | 136° |
| 2026-04-27 12:07 | 46.05874 | 12.25975 | 37142 ft | 460 kts | 136° |
| 2026-04-27 12:07 | 46.01204 | 12.32254 | 37146 ft | 459 kts | 137° |
| 2026-04-27 12:08 | 45.96530 | 12.38522 | 37157 ft | 459 kts | 137° |
| 2026-04-27 12:08 | 45.91855 | 12.44780 | 37151 ft | 460 kts | 137° |
| 2026-04-27 12:09 | 45.87175 | 12.51040 | 37139 ft | 460 kts | 137° |
| 2026-04-27 12:09 | 45.82493 | 12.57285 | 37131 ft | 460 kts | 137° |
| 2026-04-27 12:10 | 45.77809 | 12.63525 | 37127 ft | 460 kts | 137° |
| 2026-04-27 12:10 | 45.73119 | 12.69743 | 37130 ft | 460 kts | 137° |
| 2026-04-27 12:11 | 45.68418 | 12.75952 | 37122 ft | 460 kts | 137° |
| 2026-04-27 12:11 | 45.63711 | 12.82156 | 37107 ft | 460 kts | 137° |
| 2026-04-27 12:12 | 45.59007 | 12.88341 | 37116 ft | 460 kts | 137° |
| 2026-04-27 12:12 | 45.54302 | 12.94534 | 37121 ft | 460 kts | 137° |
| 2026-04-27 12:13 | 45.49596 | 13.00713 | 37137 ft | 460 kts | 137° |
| 2026-04-27 12:13 | 45.44912 | 13.06823 | 37131 ft | 460 kts | 137° |
| 2026-04-27 12:14 | 45.40194 | 13.12967 | 37126 ft | 460 kts | 137° |
| 2026-04-27 12:14 | 45.35470 | 13.19107 | 37133 ft | 460 kts | 137° |
| 2026-04-27 12:15 | 45.30801 | 13.25308 | 37146 ft | 459 kts | 132° |
| 2026-04-27 12:15 | 45.26597 | 13.32144 | 37142 ft | 460 kts | 130° |
| 2026-04-27 12:16 | 45.22392 | 13.38979 | 37137 ft | 460 kts | 130° |
| 2026-04-27 12:16 | 45.18178 | 13.45802 | 37132 ft | 460 kts | 130° |
| 2026-04-27 12:17 | 45.13948 | 13.52591 | 37125 ft | 460 kts | 131° |
| 2026-04-27 12:17 | 45.09702 | 13.59356 | 37132 ft | 460 kts | 131° |
| 2026-04-27 12:18 | 45.05449 | 13.66114 | 37130 ft | 460 kts | 131° |
| 2026-04-27 12:18 | 45.01199 | 13.72866 | 37131 ft | 460 kts | 131° |
| 2026-04-27 12:19 | 44.96942 | 13.79611 | 37141 ft | 460 kts | 131° |
| 2026-04-27 12:19 | 44.92493 | 13.86102 | 37147 ft | 460 kts | 136° |
| 2026-04-27 12:20 | 44.87780 | 13.92221 | 37151 ft | 460 kts | 137° |
| 2026-04-27 12:20 | 44.83086 | 13.98344 | 37151 ft | 460 kts | 136° |
| 2026-04-27 12:21 | 44.78470 | 14.04582 | 37143 ft | 460 kts | 135° |
| 2026-04-27 12:21 | 44.73878 | 14.10848 | 37130 ft | 460 kts | 135° |
| 2026-04-27 12:22 | 44.69271 | 14.17079 | 37129 ft | 459 kts | 135° |
| 2026-04-27 12:22 | 44.64650 | 14.23278 | 37131 ft | 459 kts | 135° |
| 2026-04-27 12:23 | 44.60029 | 14.29465 | 37126 ft | 459 kts | 135° |
| 2026-04-27 12:23 | 44.55415 | 14.35648 | 37114 ft | 459 kts | 135° |
| 2026-04-27 12:24 | 44.50823 | 14.41788 | 37121 ft | 459 kts | 135° |
| 2026-04-27 12:24 | 44.46190 | 14.47960 | 37129 ft | 460 kts | 136° |
| 2026-04-27 12:24 | 44.43874 | 14.51045 | 37006 ft | 461 kts | 136° |
| 2026-04-27 12:25 | 44.41520 | 14.54174 | 36738 ft | 460 kts | 136° |
| 2026-04-27 12:25 | 44.39225 | 14.57220 | 36487 ft | 460 kts | 136° |
| 2026-04-27 12:25 | 44.36899 | 14.60300 | 36223 ft | 461 kts | 136° |
| 2026-04-27 12:25 | 44.34570 | 14.63374 | 35902 ft | 461 kts | 136° |
| 2026-04-27 12:26 | 44.32221 | 14.66474 | 34968 ft | 468 kts | 136° |
| 2026-04-27 12:26 | 44.29850 | 14.69603 | 34151 ft | 471 kts | 135° |
| 2026-04-27 12:26 | 44.27479 | 14.72734 | 33618 ft | 466 kts | 135° |
| 2026-04-27 12:26 | 44.25136 | 14.75825 | 33058 ft | 461 kts | 135° |
| 2026-04-27 12:27 | 44.22818 | 14.78877 | 32505 ft | 457 kts | 135° |
| 2026-04-27 12:27 | 44.20521 | 14.81898 | 31964 ft | 452 kts | 136° |
| 2026-04-27 12:27 | 44.18241 | 14.84895 | 31429 ft | 449 kts | 136° |
| 2026-04-27 12:27 | 44.16707 | 14.86910 | 31080 ft | 446 kts | 136° |
| 2026-04-27 12:28 | 44.14460 | 14.89861 | 30547 ft | 443 kts | 136° |
| 2026-04-27 12:28 | 44.12215 | 14.92804 | 29989 ft | 441 kts | 136° |
| 2026-04-27 12:28 | 44.10019 | 14.95640 | 29653 ft | 432 kts | 137° |
| 2026-04-27 12:28 | 44.07798 | 14.98436 | 29101 ft | 429 kts | 137° |
| 2026-04-27 12:29 | 44.05577 | 15.01187 | 28588 ft | 426 kts | 138° |
| 2026-04-27 12:29 | 44.03368 | 15.03904 | 28070 ft | 423 kts | 138° |
| 2026-04-27 12:29 | 44.01174 | 15.06603 | 27576 ft | 420 kts | 138° |
| 2026-04-27 12:29 | 43.98999 | 15.09288 | 27079 ft | 417 kts | 138° |
| 2026-04-27 12:30 | 43.96840 | 15.11964 | 26600 ft | 415 kts | 138° |
| 2026-04-27 12:30 | 43.94694 | 15.14634 | 26129 ft | 414 kts | 138° |
| 2026-04-27 12:30 | 43.92557 | 15.17293 | 25685 ft | 412 kts | 138° |
| 2026-04-27 12:30 | 43.90429 | 15.19936 | 25240 ft | 410 kts | 138° |
| 2026-04-27 12:31 | 43.88306 | 15.22565 | 24786 ft | 408 kts | 138° |
| 2026-04-27 12:31 | 43.86196 | 15.25175 | 24332 ft | 406 kts | 138° |
| 2026-04-27 12:31 | 43.84093 | 15.27775 | 23871 ft | 405 kts | 138° |
| 2026-04-27 12:31 | 43.81996 | 15.30367 | 23346 ft | 404 kts | 138° |
| 2026-04-27 12:32 | 43.79908 | 15.32948 | 22883 ft | 401 kts | 138° |
| 2026-04-27 12:32 | 43.77835 | 15.35507 | 22413 ft | 398 kts | 138° |
| 2026-04-27 12:32 | 43.75776 | 15.38045 | 21940 ft | 395 kts | 138° |
| 2026-04-27 12:32 | 43.73730 | 15.40563 | 21466 ft | 392 kts | 139° |
| 2026-04-27 12:33 | 43.71696 | 15.43060 | 21002 ft | 390 kts | 139° |
| 2026-04-27 12:33 | 43.69674 | 15.45545 | 20494 ft | 388 kts | 139° |
| 2026-04-27 12:33 | 43.67660 | 15.48020 | 20037 ft | 386 kts | 139° |
| 2026-04-27 12:33 | 43.65662 | 15.50470 | 19593 ft | 383 kts | 139° |
| 2026-04-27 12:34 | 43.63679 | 15.52900 | 19165 ft | 380 kts | 139° |
| 2026-04-27 12:34 | 43.61704 | 15.55313 | 18627 ft | 380 kts | 139° |
| 2026-04-27 12:34 | 43.59748 | 15.57762 | 18100 ft | 379 kts | 135° |
| 2026-04-27 12:34 | 43.58206 | 15.60718 | 17356 ft | 383 kts | 118° |
| 2026-04-27 12:35 | 43.56950 | 15.63957 | 16773 ft | 382 kts | 118° |
| 2026-04-27 12:35 | 43.55696 | 15.67190 | 16079 ft | 385 kts | 118° |
| 2026-04-27 12:35 | 43.54429 | 15.70442 | 15460 ft | 385 kts | 118° |
| 2026-04-27 12:35 | 43.53167 | 15.73676 | 14868 ft | 380 kts | 118° |
| 2026-04-27 12:36 | 43.51925 | 15.76861 | 14047 ft | 375 kts | 118° |
| 2026-04-27 12:36 | 43.50696 | 15.80004 | 13173 ft | 370 kts | 118° |
| 2026-04-27 12:36 | 43.49485 | 15.83094 | 12342 ft | 363 kts | 118° |
| 2026-04-27 12:36 | 43.48298 | 15.86113 | 11529 ft | 356 kts | 119° |
| 2026-04-27 12:37 | 43.47132 | 15.89075 | 10749 ft | 348 kts | 119° |
| 2026-04-27 12:37 | 43.45992 | 15.91971 | 9963 ft | 341 kts | 119° |
| 2026-04-27 12:37 | 43.44873 | 15.94810 | 9081 ft | 334 kts | 119° |
| 2026-04-27 12:37 | 43.43774 | 15.97601 | 8178 ft | 330 kts | 119° |
| 2026-04-27 12:38 | 43.42688 | 16.00360 | 7281 ft | 326 kts | 119° |
| 2026-04-27 12:38 | 43.41613 | 16.03088 | 6419 ft | 323 kts | 119° |
| 2026-04-27 12:38 | 43.40554 | 16.05768 | 5893 ft | 308 kts | 119° |
| 2026-04-27 12:38 | 43.39567 | 16.08262 | 5776 ft | 288 kts | 119° |
| 2026-04-27 12:39 | 43.38646 | 16.10592 | 5640 ft | 274 kts | 120° |
| 2026-04-27 12:39 | 43.37757 | 16.12839 | 5520 ft | 261 kts | 120° |
| 2026-04-27 12:39 | 43.36906 | 16.14993 | 5471 ft | 245 kts | 120° |
| 2026-04-27 12:39 | 43.36133 | 16.16950 | 5470 ft | 228 kts | 120° |
| 2026-04-27 12:40 | 43.35399 | 16.18806 | 5442 ft | 215 kts | 119° |
| 2026-04-27 12:40 | 43.34982 | 16.20717 | 5305 ft | 208 kts | 91° |
| 2026-04-27 12:40 | 43.35349 | 16.22594 | 5132 ft | 205 kts | 59° |
| 2026-04-27 12:40 | 43.36323 | 16.24003 | 4969 ft | 204 kts | 43° |
| 2026-04-27 12:41 | 43.37388 | 16.25287 | 4798 ft | 203 kts | 43° |
| 2026-04-27 12:41 | 43.38447 | 16.26568 | 4583 ft | 202 kts | 43° |
| 2026-04-27 12:41 | 43.39502 | 16.27845 | 4352 ft | 202 kts | 43° |
| 2026-04-27 12:41 | 43.40564 | 16.29134 | 4079 ft | 205 kts | 43° |
| 2026-04-27 12:42 | 43.41620 | 16.30415 | 3851 ft | 201 kts | 43° |
| 2026-04-27 12:42 | 43.42658 | 16.31672 | 3585 ft | 195 kts | 43° |
| 2026-04-27 12:42 | 43.43628 | 16.32845 | 3508 ft | 175 kts | 43° |
| 2026-04-27 12:42 | 43.44492 | 16.33888 | 3484 ft | 159 kts | 45° |
| 2026-04-27 12:43 | 43.45310 | 16.34884 | 3286 ft | 155 kts | 44° |
| 2026-04-27 12:43 | 43.46112 | 16.35865 | 3082 ft | 155 kts | 44° |
| 2026-04-27 12:43 | 43.46917 | 16.36849 | 2880 ft | 155 kts | 45° |
| 2026-04-27 12:43 | 43.47723 | 16.37833 | 2675 ft | 154 kts | 45° |
| 2026-04-27 12:44 | 43.48423 | 16.38937 | 2478 ft | 152 kts | 56° |
| 2026-04-27 12:44 | 43.49292 | 16.39742 | 2268 ft | 158 kts | 10° |
| 2026-04-27 12:44 | 43.50374 | 16.39629 | 2070 ft | 156 kts | 347° |
| 2026-04-27 12:44 | 43.51417 | 16.39263 | 1865 ft | 152 kts | 342° |
| 2026-04-27 12:45 | 43.52412 | 16.38881 | 1673 ft | 145 kts | 341° |
| 2026-04-27 12:45 | 43.53374 | 16.38487 | 1510 ft | 145 kts | 340° |
| 2026-04-27 12:45 | 43.54335 | 16.38074 | 1342 ft | 143 kts | 338° |
| 2026-04-27 12:45 | 43.55268 | 16.37646 | 1173 ft | 139 kts | 338° |
| 2026-04-27 12:46 | 43.55972 | 16.36862 | 986 ft | 127 kts | 289° |
| 2026-04-27 12:46 | 43.56034 | 16.35671 | 818 ft | 124 kts | 262° |
| 2026-04-27 12:46 | 43.55970 | 16.34481 | 634 ft | 122 kts | 262° |
| 2026-04-27 12:46 | 43.55823 | 16.33346 | 500 ft | 120 kts | 245° |
| 2026-04-27 12:47 | 43.55345 | 16.32382 | 328 ft | 125 kts | 231° |
| 2026-04-27 12:47 | 43.54809 | 16.31437 | 172 ft | 124 kts | 233° |
| 2026-04-27 12:47 | 43.54290 | 16.30506 | 62 ft | 115 kts | 233° |
| 2026-04-27 12:47 | 43.53932 | 16.29860 | 72 ft | 44 kts | 232° |
| 2026-04-27 12:48 | 43.53790 | 16.29607 | 82 ft | 28 kts | 232° |
| 2026-04-27 12:48 | 43.53724 | 16.29493 | 79 ft | 10 kts | 221° |
| 2026-04-27 12:48 | 43.53696 | 16.29520 | 71 ft | 7 kts | 102° |
| 2026-04-27 12:48 | 43.53690 | 16.29579 | 70 ft | 1 kts | 100° |
| 2026-04-27 12:49 | 43.53685 | 16.29607 | 71 ft | 5 kts | 104° |
| 2026-04-27 12:49 | 43.53682 | 16.29630 | 70 ft | 5 kts | 96° |
| 2026-04-27 12:49 | 43.53705 | 16.29699 | 68 ft | 10 kts | 52° |
| 2026-04-27 12:49 | 43.53741 | 16.29763 | 63 ft | 4 kts | 51° |
| 2026-04-27 12:50 | 43.53748 | 16.29805 | 68 ft | 6 kts | 105° |
| 2026-04-27 12:50 | 43.53732 | 16.29856 | 65 ft | 2 kts | 114° |
| 2026-04-27 12:50 | 43.53729 | 16.29865 | 64 ft | 0 kts | 114° |